Moline, Kansas
Current Conditions -  °F | °C
As of 11:15 PM on Saturday 25 Oct 2014 (Local Time) from KIDP Reporting Station
Haze Haze  
Wind Chill: 64°   Ceiling: Unl
Heat Index: 64°   Visibility: 3mi
Dew Point: 61°   Wind: 6mph
Humidity: 88%   Direction: 180°S
Pressure: 29.97"   Gusts: NA
Location:  37.36°N, 96.3°W
Report Text: KIDP 260415Z AUTO 18005KT 3SM BR CLR 18/16 A2997 RMK AO2
Loading
Personal Weather Stations






























Interactive Weather Map New forecast layout! Learn more

10-Day Weather Forecast

Advertisements
Track Severe Weather on mobile